createdAt,value
2023-08-14T00:00:08.847Z,25.49
2023-08-14T00:01:08.825Z,25.48
2023-08-14T00:02:08.835Z,25.48
2023-08-14T00:03:08.938Z,25.48
2023-08-14T00:04:08.875Z,25.48
2023-08-14T00:05:08.925Z,25.47
2023-08-14T00:06:08.947Z,25.47
2023-08-14T00:07:08.946Z,25.47
2023-08-14T00:08:08.977Z,25.47
2023-08-14T00:09:09.005Z,25.46
2023-08-14T00:10:09.014Z,25.46
2023-08-14T00:11:09.009Z,25.46
2023-08-14T00:12:09.047Z,25.45
2023-08-14T00:13:09.036Z,25.45
2023-08-14T00:14:09.059Z,25.46
2023-08-14T00:15:09.116Z,25.45
2023-08-14T00:16:09.064Z,25.45
2023-08-14T00:17:09.078Z,25.45
2023-08-14T00:18:09.157Z,25.44
2023-08-14T00:19:09.165Z,25.44
2023-08-14T00:20:09.108Z,25.42
2023-08-14T00:21:09.109Z,25.43
2023-08-14T00:22:09.113Z,25.42
2023-08-14T00:23:09.089Z,25.42
2023-08-14T00:24:09.099Z,25.41
2023-08-14T00:25:09.085Z,25.42
2023-08-14T00:26:09.107Z,25.41
2023-08-14T00:27:09.091Z,25.41
2023-08-14T00:28:09.074Z,25.41
2023-08-14T00:29:09.090Z,25.41
2023-08-14T00:30:09.059Z,25.41
2023-08-14T00:31:09.103Z,25.39
2023-08-14T00:32:09.133Z,25.39
2023-08-14T00:33:09.100Z,25.39
2023-08-14T00:34:09.068Z,25.39
2023-08-14T00:35:09.093Z,25.38
2023-08-14T00:36:09.145Z,25.38
2023-08-14T00:37:09.119Z,25.38
2023-08-14T00:38:09.085Z,25.37
2023-08-14T00:39:09.149Z,25.38
2023-08-14T00:40:09.112Z,25.38
2023-08-14T00:41:09.202Z,25.37
2023-08-14T00:42:09.148Z,25.36
2023-08-14T00:43:09.124Z,25.36
2023-08-14T00:44:09.126Z,25.36
2023-08-14T00:45:09.145Z,25.36
2023-08-14T00:46:09.160Z,25.36
2023-08-14T00:47:09.103Z,25.35
2023-08-14T00:48:09.133Z,25.36
2023-08-14T00:49:09.100Z,25.35
2023-08-14T00:50:09.183Z,25.34
2023-08-14T00:51:09.160Z,25.34
2023-08-14T00:52:09.123Z,25.33
2023-08-14T00:53:09.131Z,25.33
2023-08-14T00:54:09.117Z,25.33
2023-08-14T00:55:09.145Z,25.33
2023-08-14T00:56:09.097Z,25.33
2023-08-14T00:57:09.119Z,25.32
2023-08-14T00:58:09.117Z,25.33
2023-08-14T00:59:09.104Z,25.33
2023-08-14T01:00:09.096Z,25.32
2023-08-14T01:01:09.141Z,25.32
2023-08-14T01:02:09.135Z,25.32
2023-08-14T01:03:09.148Z,25.31
2023-08-14T01:04:09.199Z,25.31
2023-08-14T01:05:09.093Z,25.31
2023-08-14T01:06:09.082Z,25.31
2023-08-14T01:07:09.059Z,25.30
2023-08-14T01:08:09.099Z,25.29
2023-08-14T01:09:09.080Z,25.29
2023-08-14T01:10:09.067Z,25.29
2023-08-14T01:11:09.080Z,25.29
2023-08-14T01:12:09.063Z,25.29
2023-08-14T01:13:09.103Z,25.28
2023-08-14T01:14:09.079Z,25.27
2023-08-14T01:15:09.084Z,25.27
2023-08-14T01:16:09.116Z,25.27
2023-08-14T01:17:09.045Z,25.26
2023-08-14T01:18:09.102Z,25.27
2023-08-14T01:19:09.091Z,25.25
2023-08-14T01:20:09.048Z,25.26
2023-08-14T01:21:09.087Z,25.25
2023-08-14T01:22:09.129Z,25.25
2023-08-14T01:23:09.063Z,25.24
2023-08-14T01:24:09.127Z,25.25
2023-08-14T01:25:09.097Z,25.25
2023-08-14T01:26:09.123Z,25.24
2023-08-14T01:27:09.082Z,25.24
2023-08-14T01:28:09.090Z,25.23
2023-08-14T01:29:09.085Z,25.23
2023-08-14T01:30:09.131Z,25.23
2023-08-14T01:31:09.106Z,25.23
2023-08-14T01:32:09.107Z,25.22
2023-08-14T01:33:09.201Z,25.22
2023-08-14T01:34:09.100Z,25.22
2023-08-14T01:35:09.082Z,25.22
2023-08-14T01:36:09.093Z,25.21
2023-08-14T01:37:09.169Z,25.22
2023-08-14T01:38:09.087Z,25.21
2023-08-14T01:39:09.107Z,25.21
2023-08-14T01:40:09.168Z,25.20
2023-08-14T01:41:09.116Z,25.20
2023-08-14T01:42:09.153Z,25.19
2023-08-14T01:43:09.133Z,25.20
2023-08-14T01:44:09.132Z,25.20
2023-08-14T01:45:09.135Z,25.19
2023-08-14T01:46:09.160Z,25.20
2023-08-14T01:47:09.154Z,25.19
2023-08-14T01:48:09.139Z,25.19
2023-08-14T01:49:09.140Z,25.18
2023-08-14T01:50:09.156Z,25.19
2023-08-14T01:51:09.177Z,25.19
2023-08-14T01:52:09.219Z,25.18
2023-08-14T01:53:09.187Z,25.17
2023-08-14T01:54:09.193Z,25.17
2023-08-14T01:55:09.202Z,25.17
2023-08-14T01:56:09.195Z,25.16
2023-08-14T01:57:09.241Z,25.16
2023-08-14T01:58:09.227Z,25.16
2023-08-14T01:59:09.224Z,25.16
2023-08-14T02:00:09.260Z,25.16
2023-08-14T02:01:09.246Z,25.15
2023-08-14T02:02:09.229Z,25.15
2023-08-14T02:03:09.324Z,25.15
2023-08-14T02:04:09.243Z,25.14
2023-08-14T02:05:09.234Z,25.14
2023-08-14T02:06:09.276Z,25.15
2023-08-14T02:07:09.283Z,25.14
2023-08-14T02:08:09.295Z,25.14
2023-08-14T02:09:09.314Z,25.14
2023-08-14T02:10:09.288Z,25.14
2023-08-14T02:11:09.304Z,25.13
2023-08-14T02:12:09.337Z,25.13
2023-08-14T02:13:09.313Z,25.13
2023-08-14T02:14:09.353Z,25.13
2023-08-14T02:15:09.362Z,25.12
2023-08-14T02:16:09.387Z,25.12
2023-08-14T02:17:09.378Z,25.13
2023-08-14T02:18:09.486Z,25.12
2023-08-14T02:19:09.416Z,25.11
2023-08-14T02:20:09.425Z,25.12
2023-08-14T02:21:09.431Z,25.10
2023-08-14T02:22:09.467Z,25.11
2023-08-14T02:23:09.429Z,25.11
2023-08-14T02:24:09.477Z,25.11
2023-08-14T02:25:09.482Z,25.10
2023-08-14T02:26:09.500Z,25.10
2023-08-14T02:27:09.549Z,25.10
2023-08-14T02:28:09.526Z,25.09
2023-08-14T02:29:09.552Z,25.09
2023-08-14T02:30:09.514Z,25.09
2023-08-14T02:31:09.578Z,25.09
2023-08-14T02:32:09.549Z,25.09
2023-08-14T02:33:09.590Z,25.08
2023-08-14T02:34:09.581Z,25.08
2023-08-14T02:35:09.575Z,25.08
2023-08-14T02:36:09.565Z,25.08
2023-08-14T02:37:09.586Z,25.07
2023-08-14T02:38:09.629Z,25.06
2023-08-14T02:39:09.623Z,25.07
2023-08-14T02:40:09.653Z,25.06
2023-08-14T02:41:09.624Z,25.06
2023-08-14T02:42:09.638Z,25.07
2023-08-14T02:43:09.710Z,25.06
2023-08-14T02:44:09.765Z,25.05
2023-08-14T02:45:09.680Z,25.06
2023-08-14T02:46:09.762Z,25.06
2023-08-14T02:47:09.721Z,25.05
2023-08-14T02:48:09.777Z,25.05
2023-08-14T02:49:09.728Z,25.05
2023-08-14T02:50:09.741Z,25.05
2023-08-14T02:51:09.793Z,25.04
2023-08-14T02:52:09.759Z,25.04
2023-08-14T02:53:10.104Z,25.04
2023-08-14T02:54:09.794Z,25.03
2023-08-14T02:55:09.867Z,25.03
2023-08-14T02:56:09.842Z,25.03
2023-08-14T02:57:09.857Z,25.03
2023-08-14T02:58:09.871Z,25.03
2023-08-14T02:59:09.896Z,25.02
2023-08-14T03:00:09.917Z,25.02
2023-08-14T03:01:09.938Z,25.02
2023-08-14T03:02:09.967Z,25.01
2023-08-14T03:03:10.004Z,25.02
2023-08-14T03:04:09.977Z,25.01
2023-08-14T03:05:09.976Z,25.01
2023-08-14T03:06:09.988Z,25.01
2023-08-14T03:07:09.993Z,25.01
2023-08-14T03:08:10.020Z,25.00
2023-08-14T03:09:10.027Z,25.00
2023-08-14T03:10:10.064Z,25.00
2023-08-14T03:11:10.061Z,25.00
2023-08-14T03:12:10.086Z,25.00
2023-08-14T03:13:10.103Z,24.99
2023-08-14T03:14:10.139Z,24.99
2023-08-14T03:15:10.140Z,24.99
2023-08-14T03:16:10.174Z,24.98
2023-08-14T03:17:10.176Z,24.98
2023-08-14T03:18:10.200Z,24.98
2023-08-14T03:19:10.218Z,24.98
2023-08-14T03:20:10.297Z,24.98
2023-08-14T03:21:10.253Z,24.98
2023-08-14T03:22:10.283Z,24.98
2023-08-14T03:23:10.304Z,24.97
2023-08-14T03:24:10.320Z,24.97
2023-08-14T03:25:10.385Z,24.97
2023-08-14T03:26:10.400Z,24.97
2023-08-14T03:27:10.425Z,24.96
2023-08-14T03:28:10.433Z,24.97
2023-08-14T03:29:10.436Z,24.97
2023-08-14T03:30:10.471Z,24.96
2023-08-14T03:31:10.629Z,24.96
2023-08-14T03:32:10.532Z,24.96
2023-08-14T03:33:10.591Z,24.96
2023-08-14T03:34:10.605Z,24.95
2023-08-14T03:35:10.550Z,24.95
2023-08-14T03:36:10.599Z,24.95
2023-08-14T03:37:12.601Z,24.95
2023-08-14T03:38:10.679Z,24.93
2023-08-14T03:39:10.652Z,24.94
2023-08-14T03:40:10.670Z,24.93
2023-08-14T03:41:10.690Z,24.93
2023-08-14T03:42:10.708Z,24.93
2023-08-14T03:43:10.762Z,24.92
2023-08-14T03:44:10.765Z,24.92
2023-08-14T03:45:10.833Z,24.93
2023-08-14T03:46:10.833Z,24.92
2023-08-14T03:47:10.867Z,24.92
2023-08-14T03:48:10.863Z,24.92
2023-08-14T03:49:10.909Z,24.91
2023-08-14T03:50:10.923Z,24.91
2023-08-14T03:51:10.952Z,24.91
2023-08-14T03:52:10.981Z,24.91
2023-08-14T03:53:11.020Z,24.90
2023-08-14T03:54:11.043Z,24.90
2023-08-14T03:55:11.086Z,24.90
2023-08-14T03:56:11.124Z,24.90
2023-08-14T03:57:11.138Z,24.89
2023-08-14T03:58:11.144Z,24.89
2023-08-14T03:59:11.203Z,24.89
2023-08-14T04:00:11.239Z,24.89
2023-08-14T04:01:11.270Z,24.89
2023-08-14T04:02:11.344Z,24.88
2023-08-14T04:03:11.431Z,24.88
2023-08-14T04:04:11.373Z,24.88
2023-08-14T04:05:11.379Z,24.88
2023-08-14T04:06:11.417Z,24.88
2023-08-14T04:07:11.458Z,24.88
2023-08-14T04:08:11.452Z,24.87
2023-08-14T04:09:11.493Z,24.87
2023-08-14T04:10:11.515Z,24.87
2023-08-14T04:11:11.536Z,24.87
2023-08-14T04:12:11.588Z,24.87
2023-08-14T04:13:11.607Z,24.87
2023-08-14T04:14:11.631Z,24.86
2023-08-14T04:15:11.648Z,24.86
2023-08-14T04:16:11.719Z,24.86
2023-08-14T04:17:11.699Z,24.86
2023-08-14T04:18:11.847Z,24.85
2023-08-14T04:19:11.756Z,24.85
2023-08-14T04:20:11.795Z,24.86
2023-08-14T04:21:11.824Z,24.86
2023-08-14T04:22:11.832Z,24.85
2023-08-14T04:23:11.873Z,24.85
2023-08-14T04:24:11.923Z,24.85
2023-08-14T04:25:11.943Z,24.84
2023-08-14T04:26:11.978Z,24.84
2023-08-14T04:27:11.986Z,24.84
2023-08-14T04:28:12.004Z,24.84
2023-08-14T04:29:12.036Z,24.84
2023-08-14T04:30:12.090Z,24.84
2023-08-14T04:31:12.081Z,24.84
2023-08-14T04:32:12.130Z,24.84
2023-08-14T04:33:12.133Z,24.84
2023-08-14T04:34:12.169Z,24.83
2023-08-14T04:35:12.189Z,24.84
2023-08-14T04:36:12.218Z,24.83
2023-08-14T04:37:12.253Z,24.82
2023-08-14T04:38:12.268Z,24.83
2023-08-14T04:39:12.317Z,24.83
2023-08-14T04:40:12.326Z,24.83
2023-08-14T04:41:12.353Z,24.83
2023-08-14T04:42:12.385Z,24.83
2023-08-14T04:43:12.418Z,24.83
2023-08-14T04:44:12.457Z,24.83
2023-08-14T04:45:12.507Z,24.83
2023-08-14T04:46:12.693Z,24.83
2023-08-14T04:47:12.577Z,24.84
2023-08-14T04:48:12.654Z,24.83
2023-08-14T04:49:12.646Z,24.83
2023-08-14T04:50:12.698Z,24.84
2023-08-14T04:51:12.702Z,24.83
2023-08-14T04:52:12.733Z,24.83
2023-08-14T04:53:12.784Z,24.82
2023-08-14T04:54:12.812Z,24.83
2023-08-14T04:55:12.833Z,24.83
2023-08-14T04:56:12.868Z,24.83
2023-08-14T04:57:12.908Z,24.83
2023-08-14T04:58:12.925Z,24.83
2023-08-14T04:59:13.037Z,24.83
2023-08-14T05:00:13.076Z,24.83
2023-08-14T05:01:13.097Z,24.83
2023-08-14T05:02:13.096Z,24.83
2023-08-14T05:03:13.110Z,24.84
2023-08-14T05:04:13.193Z,24.83
2023-08-14T05:05:13.167Z,24.84
2023-08-14T05:06:13.207Z,24.85
2023-08-14T05:07:13.311Z,24.88
2023-08-14T05:08:13.292Z,24.89
2023-08-14T05:09:25.580Z,24.92
2023-08-14T05:10:14.292Z,24.93
2023-08-14T05:11:13.286Z,24.94
2023-08-14T05:12:13.287Z,24.96
2023-08-14T05:13:13.263Z,24.97
2023-08-14T05:14:13.258Z,25.00
2023-08-14T05:15:13.260Z,25.01
2023-08-14T05:16:13.260Z,25.02
2023-08-14T05:17:13.242Z,25.03
2023-08-14T05:18:13.223Z,25.05
2023-08-14T05:19:13.246Z,25.06
2023-08-14T05:20:13.220Z,25.06
2023-08-14T05:21:13.217Z,25.06
2023-08-14T05:22:13.300Z,25.05
2023-08-14T05:23:13.193Z,25.05
2023-08-14T05:24:13.186Z,25.05
2023-08-14T05:25:13.217Z,25.04
2023-08-14T05:26:13.169Z,25.05
2023-08-14T05:27:13.182Z,25.07
2023-08-14T05:28:13.195Z,25.08
2023-08-14T05:29:13.200Z,25.09
2023-08-14T05:30:13.144Z,25.12
2023-08-14T05:31:13.162Z,25.14
2023-08-14T05:32:13.236Z,25.16
2023-08-14T05:33:13.176Z,25.18
2023-08-14T05:34:13.180Z,25.18
2023-08-14T05:35:13.216Z,25.18
2023-08-14T05:36:13.204Z,25.18
2023-08-14T05:37:13.209Z,25.17
2023-08-14T05:38:13.214Z,25.19
2023-08-14T05:39:13.258Z,25.21
2023-08-14T05:40:13.220Z,25.23
2023-08-14T05:41:13.235Z,25.25
2023-08-14T05:42:13.267Z,25.28
2023-08-14T05:43:13.254Z,25.30
2023-08-14T05:44:13.250Z,25.32
2023-08-14T05:45:13.275Z,25.33
2023-08-14T05:46:13.262Z,25.35
2023-08-14T05:47:13.249Z,25.36
2023-08-14T05:48:13.247Z,25.35
2023-08-14T05:49:13.228Z,25.34
2023-08-14T05:50:13.257Z,25.33
2023-08-14T05:51:13.222Z,25.34
2023-08-14T05:52:13.261Z,25.33
2023-08-14T05:53:13.241Z,25.33
2023-08-14T05:54:13.261Z,25.33
2023-08-14T05:55:13.241Z,25.33
2023-08-14T05:56:13.272Z,25.34
2023-08-14T05:57:13.255Z,25.35
2023-08-14T05:58:13.247Z,25.33
2023-08-14T05:59:13.253Z,25.33
2023-08-14T06:00:13.264Z,25.33
2023-08-14T06:01:13.286Z,25.34
2023-08-14T06:02:13.240Z,25.33
2023-08-14T06:03:15.210Z,25.34
2023-08-14T06:04:14.273Z,25.33
2023-08-14T06:05:13.231Z,25.32
2023-08-14T06:06:13.238Z,25.32
2023-08-14T06:07:13.220Z,25.33
2023-08-14T06:08:13.196Z,25.32
2023-08-14T06:09:13.204Z,25.33
2023-08-14T06:10:13.202Z,25.32
2023-08-14T06:11:13.171Z,25.32
2023-08-14T06:12:13.160Z,25.33
2023-08-14T06:13:13.172Z,25.34
2023-08-14T06:14:13.150Z,25.36
2023-08-14T06:15:13.153Z,25.39
2023-08-14T06:16:13.243Z,25.41
2023-08-14T06:17:13.147Z,25.46
2023-08-14T06:18:13.148Z,25.48
2023-08-14T06:19:13.135Z,25.51
2023-08-14T06:20:13.128Z,25.53
2023-08-14T06:21:13.114Z,25.55
2023-08-14T06:22:13.165Z,25.58
2023-08-14T06:23:13.148Z,25.61
2023-08-14T06:24:13.103Z,25.63
2023-08-14T06:25:13.098Z,25.66
2023-08-14T06:26:13.090Z,25.68
2023-08-14T06:27:13.106Z,25.70
2023-08-14T06:28:13.194Z,25.73
2023-08-14T06:29:13.226Z,25.76
2023-08-14T06:30:13.308Z,25.78
2023-08-14T06:31:13.390Z,25.81
2023-08-14T06:32:13.431Z,25.82
2023-08-14T06:33:15.140Z,25.85
2023-08-14T06:34:13.502Z,25.87
2023-08-14T06:35:13.578Z,25.89
2023-08-14T06:36:13.615Z,25.91
2023-08-14T06:37:13.674Z,25.96
2023-08-14T06:38:13.764Z,25.97
2023-08-14T06:39:13.757Z,26.00
2023-08-14T06:40:13.859Z,26.02
2023-08-14T06:41:13.875Z,26.05
2023-08-14T06:42:13.988Z,26.07
2023-08-14T06:43:13.952Z,26.10
2023-08-14T06:44:14.004Z,26.13
2023-08-14T06:45:14.039Z,26.15
2023-08-14T06:46:14.150Z,26.18
2023-08-14T06:47:14.122Z,26.21
2023-08-14T06:48:14.179Z,26.23
2023-08-14T06:49:14.225Z,26.26
2023-08-14T06:50:14.280Z,26.27
2023-08-14T06:51:14.314Z,26.29
2023-08-14T06:52:14.311Z,26.31
2023-08-14T06:53:14.363Z,26.33
2023-08-14T06:54:14.394Z,26.35
2023-08-14T06:55:14.387Z,26.36
2023-08-14T06:56:14.399Z,26.38
2023-08-14T06:57:14.476Z,26.41
2023-08-14T06:58:14.437Z,26.43
2023-08-14T06:59:14.501Z,26.47
2023-08-14T07:00:14.561Z,26.48
2023-08-14T07:01:14.611Z,26.50
2023-08-14T07:02:14.525Z,26.53
2023-08-14T07:03:14.690Z,26.53
2023-08-14T07:04:14.553Z,26.54
2023-08-14T07:05:14.615Z,26.56
2023-08-14T07:06:14.632Z,26.58
2023-08-14T07:07:14.602Z,26.60
2023-08-14T07:08:14.597Z,26.61
2023-08-14T07:09:14.587Z,26.63
2023-08-14T07:10:14.621Z,26.65
2023-08-14T07:11:14.634Z,26.67
2023-08-14T07:12:14.637Z,26.69
2023-08-14T07:13:14.649Z,26.71
2023-08-14T07:14:14.754Z,26.74
2023-08-14T07:15:14.647Z,26.76
2023-08-14T07:16:14.675Z,26.78
2023-08-14T07:17:14.676Z,26.79
2023-08-14T07:18:14.704Z,26.81
2023-08-14T07:19:14.680Z,26.83
2023-08-14T07:20:14.692Z,26.84
2023-08-14T07:21:14.722Z,26.85
2023-08-14T07:22:14.746Z,26.86
2023-08-14T07:23:14.744Z,26.89
2023-08-14T07:24:14.747Z,26.90
2023-08-14T07:25:14.763Z,26.91
2023-08-14T07:26:14.761Z,26.93
2023-08-14T07:27:14.782Z,26.94
2023-08-14T07:28:14.765Z,26.96
2023-08-14T07:30:14.791Z,26.98
2023-08-14T07:31:14.780Z,27.00
2023-08-14T07:32:14.764Z,27.01
2023-08-14T07:33:14.786Z,27.02
2023-08-14T07:34:14.738Z,27.04
2023-08-14T07:35:14.754Z,27.06
2023-08-14T07:36:14.758Z,27.08
2023-08-14T07:37:14.777Z,27.11
2023-08-14T07:38:14.707Z,27.11
2023-08-14T07:39:14.727Z,27.13
2023-08-14T07:40:14.702Z,27.14
2023-08-14T07:41:14.738Z,27.15
2023-08-14T07:42:14.697Z,27.17
2023-08-14T07:43:14.700Z,27.17
2023-08-14T07:44:14.681Z,27.19
2023-08-14T07:45:14.698Z,27.21
2023-08-14T07:46:14.690Z,27.23
2023-08-14T07:47:14.711Z,27.25
2023-08-14T07:48:14.672Z,27.26
2023-08-14T07:49:14.965Z,27.29
2023-08-14T07:50:14.650Z,27.31
2023-08-14T07:51:14.671Z,27.32
2023-08-14T07:52:14.643Z,27.34
2023-08-14T07:53:14.625Z,27.35
2023-08-14T07:54:14.667Z,27.38
2023-08-14T07:55:14.607Z,27.40
2023-08-14T07:56:14.634Z,27.41
2023-08-14T07:57:14.635Z,27.43
2023-08-14T07:58:14.634Z,27.45
2023-08-14T07:59:14.729Z,27.45
2023-08-14T08:00:14.785Z,27.47
2023-08-14T08:01:14.876Z,27.48
2023-08-14T08:02:14.913Z,27.50
2023-08-14T08:03:15.015Z,27.51
2023-08-14T08:04:26.574Z,27.53
2023-08-14T08:05:17.507Z,27.54
2023-08-14T08:06:15.058Z,27.54
2023-08-14T08:07:15.009Z,27.56
2023-08-14T08:08:15.021Z,27.58
2023-08-14T08:09:14.999Z,27.59
2023-08-14T08:10:15.002Z,27.60
2023-08-14T08:11:14.978Z,27.62
2023-08-14T08:12:15.246Z,27.63
2023-08-14T08:13:14.973Z,27.64
2023-08-14T08:14:14.972Z,27.65
2023-08-14T08:15:14.958Z,27.67
2023-08-14T08:16:15.006Z,27.70
2023-08-14T08:17:14.992Z,27.70
2023-08-14T08:18:14.909Z,27.71
2023-08-14T08:19:14.915Z,27.73
2023-08-14T08:20:14.921Z,27.74
2023-08-14T08:21:14.906Z,27.75
2023-08-14T08:22:14.996Z,27.77
2023-08-14T08:23:14.937Z,27.79
2023-08-14T08:24:14.953Z,27.80
2023-08-14T08:25:15.033Z,27.82
2023-08-14T08:26:16.446Z,27.83
2023-08-14T08:27:15.060Z,27.84
2023-08-14T08:28:15.135Z,27.85
2023-08-14T08:29:15.176Z,27.87
2023-08-14T08:30:15.184Z,27.88
2023-08-14T08:31:15.235Z,27.90
2023-08-14T08:32:15.257Z,27.91
2023-08-14T08:33:15.324Z,27.91
2023-08-14T08:34:15.318Z,27.92
2023-08-14T08:35:15.448Z,27.92
2023-08-14T08:36:15.411Z,27.93
2023-08-14T08:37:15.423Z,27.93
2023-08-14T08:38:15.478Z,27.94
2023-08-14T08:39:15.527Z,27.96
2023-08-14T08:40:15.526Z,27.99
2023-08-14T08:41:15.492Z,28.00
2023-08-14T08:42:15.715Z,28.01
2023-08-14T08:43:15.586Z,28.01
2023-08-14T08:44:15.575Z,28.01
2023-08-14T08:45:15.722Z,28.01
2023-08-14T08:46:15.870Z,28.02
2023-08-14T08:47:15.705Z,28.02
2023-08-14T08:48:15.856Z,28.03
2023-08-14T08:49:15.719Z,28.04
2023-08-14T08:50:15.699Z,28.05
2023-08-14T08:51:15.734Z,28.06
2023-08-14T08:52:16.000Z,28.08
2023-08-14T08:53:15.829Z,28.09
2023-08-14T08:54:15.812Z,28.10
2023-08-14T08:55:16.873Z,28.12
2023-08-14T08:56:15.816Z,28.12
2023-08-14T08:57:15.811Z,28.14
2023-08-14T08:58:15.900Z,28.16
2023-08-14T08:59:15.824Z,28.16
2023-08-14T09:00:15.805Z,28.18
2023-08-14T09:01:15.883Z,28.19
2023-08-14T09:02:18.697Z,28.20
2023-08-14T09:03:16.109Z,28.21
2023-08-14T09:04:15.993Z,28.23
2023-08-14T09:05:15.862Z,28.24
2023-08-14T09:06:15.841Z,28.26
2023-08-14T09:07:15.785Z,28.27
2023-08-14T09:08:16.279Z,28.28
2023-08-14T09:09:15.806Z,28.28
2023-08-14T09:10:15.814Z,28.29
2023-08-14T09:11:15.785Z,28.31
2023-08-14T09:12:15.802Z,28.32
2023-08-14T09:13:16.108Z,28.33
2023-08-14T09:14:16.077Z,28.34
2023-08-14T09:15:15.745Z,28.34
2023-08-14T09:16:15.756Z,28.35
2023-08-14T09:17:16.544Z,28.35
2023-08-14T09:18:15.914Z,28.38
2023-08-14T09:19:15.947Z,28.39
2023-08-14T09:20:20.181Z,28.39
2023-08-14T09:21:16.985Z,28.40
2023-08-14T09:22:15.949Z,28.41
2023-08-14T09:23:16.042Z,28.43
2023-08-14T09:24:15.976Z,28.44
2023-08-14T09:25:16.019Z,28.45
2023-08-14T09:26:15.967Z,28.45
2023-08-14T09:27:16.109Z,28.48
2023-08-14T09:28:16.024Z,28.48
2023-08-14T09:30:15.900Z,28.50
2023-08-14T09:31:15.945Z,28.51
2023-08-14T09:32:16.212Z,28.51
2023-08-14T09:33:15.945Z,28.51
2023-08-14T09:34:15.886Z,28.51
2023-08-14T09:35:15.911Z,28.52
2023-08-14T09:36:15.936Z,28.52
2023-08-14T09:37:15.887Z,28.53
2023-08-14T09:38:15.894Z,28.53
2023-08-14T09:39:15.979Z,28.54
2023-08-14T09:40:16.048Z,28.56
2023-08-14T09:41:15.942Z,28.57
2023-08-14T09:42:16.293Z,28.59
2023-08-14T09:43:16.010Z,28.60
2023-08-14T09:44:16.022Z,28.61
2023-08-14T09:45:16.084Z,28.60
2023-08-14T09:46:16.116Z,28.62
2023-08-14T09:47:16.227Z,28.63
2023-08-14T09:48:16.205Z,28.65
2023-08-14T09:49:16.211Z,28.64
2023-08-14T09:50:16.249Z,28.64
2023-08-14T09:51:16.378Z,28.66
2023-08-14T09:52:16.601Z,28.66
2023-08-14T09:53:17.129Z,28.66
2023-08-14T09:54:16.444Z,28.68
2023-08-14T09:55:16.534Z,28.67
2023-08-14T09:56:16.549Z,28.70
2023-08-14T09:57:16.657Z,28.69
2023-08-14T09:58:16.670Z,28.69
2023-08-14T09:59:16.693Z,28.69
2023-08-14T10:00:16.744Z,28.70
2023-08-14T10:01:16.821Z,28.70
2023-08-14T10:02:17.445Z,28.71
2023-08-14T10:03:16.915Z,28.72
2023-08-14T10:04:16.971Z,28.73
2023-08-14T10:05:17.078Z,28.73
2023-08-14T10:06:17.070Z,28.75
2023-08-14T10:07:17.153Z,28.76
2023-08-14T10:08:17.224Z,28.78
2023-08-14T10:09:17.262Z,28.79
2023-08-14T10:10:17.322Z,28.80
2023-08-14T10:11:19.940Z,28.80
2023-08-14T10:12:17.496Z,28.82
2023-08-14T10:13:17.443Z,28.82
2023-08-14T10:14:17.361Z,28.83
2023-08-14T10:15:17.361Z,28.84
2023-08-14T10:16:17.386Z,28.84
2023-08-14T10:17:17.344Z,28.86
2023-08-14T10:18:17.364Z,28.87
2023-08-14T10:19:17.346Z,28.86
2023-08-14T10:20:17.341Z,28.86
2023-08-14T10:21:17.318Z,28.85
2023-08-14T10:22:17.609Z,28.87
2023-08-14T10:23:17.297Z,28.86
2023-08-14T10:24:17.328Z,28.86
2023-08-14T10:25:17.312Z,28.87
2023-08-14T10:26:17.280Z,28.88
2023-08-14T10:27:17.273Z,28.89
2023-08-14T10:28:17.255Z,28.89
2023-08-14T10:29:17.408Z,28.90
2023-08-14T10:30:17.241Z,28.90
2023-08-14T10:31:17.275Z,28.90
2023-08-14T10:32:17.591Z,28.91
2023-08-14T10:33:17.413Z,28.90
2023-08-14T10:34:17.423Z,28.91
2023-08-14T10:35:17.475Z,28.92
2023-08-14T10:36:17.494Z,28.92
2023-08-14T10:37:17.563Z,28.93
2023-08-14T10:39:19.637Z,28.95
2023-08-14T10:40:17.714Z,28.94
2023-08-14T10:41:17.783Z,28.94
2023-08-14T10:42:18.108Z,28.94
2023-08-14T10:43:17.863Z,28.95
2023-08-14T10:44:17.891Z,28.96
2023-08-14T10:45:17.967Z,28.96
2023-08-14T10:46:18.024Z,28.96
2023-08-14T10:47:18.008Z,28.96
2023-08-14T10:48:18.054Z,28.96
2023-08-14T10:49:18.141Z,28.96
2023-08-14T10:50:18.171Z,28.98
2023-08-14T10:51:18.240Z,28.98
2023-08-14T10:52:18.417Z,28.98
2023-08-14T10:53:18.299Z,28.98
2023-08-14T10:54:18.332Z,28.99
2023-08-14T10:55:18.517Z,28.99
2023-08-14T10:56:18.403Z,29.00
2023-08-14T10:57:18.583Z,29.00
2023-08-14T10:58:18.491Z,29.00
2023-08-14T10:59:18.865Z,29.00
2023-08-14T11:00:18.596Z,29.00
2023-08-14T11:01:18.649Z,29.00
2023-08-14T11:02:18.647Z,29.00
2023-08-14T11:03:18.771Z,28.94
2023-08-14T11:04:18.749Z,28.90
2023-08-14T11:05:19.065Z,28.88
2023-08-14T11:06:18.841Z,28.84
2023-08-14T11:07:19.057Z,28.80
2023-08-14T11:08:18.976Z,28.76
2023-08-14T11:09:19.043Z,28.73
2023-08-14T11:10:19.112Z,28.70
2023-08-14T11:11:19.111Z,28.67
2023-08-14T11:12:19.434Z,28.64
2023-08-14T11:13:19.297Z,28.61
2023-08-14T11:14:19.302Z,28.59
2023-08-14T11:15:19.478Z,28.56
2023-08-14T11:16:19.489Z,28.53
2023-08-14T11:17:19.665Z,28.50
2023-08-14T11:18:19.480Z,28.48
2023-08-14T11:19:19.531Z,28.45
2023-08-14T11:20:19.598Z,28.43
2023-08-14T11:21:30.899Z,28.42
2023-08-14T11:22:20.828Z,28.39
2023-08-14T11:23:19.597Z,28.38
2023-08-14T11:24:19.663Z,28.37
2023-08-14T11:25:19.723Z,28.34
2023-08-14T11:26:19.569Z,28.32
2023-08-14T11:27:19.555Z,28.30
2023-08-14T11:28:19.525Z,28.28
2023-08-14T11:29:19.535Z,28.27
2023-08-14T11:30:25.731Z,28.24
2023-08-14T11:31:24.535Z,28.23
2023-08-14T11:32:20.868Z,28.20
2023-08-14T11:33:19.512Z,28.18
2023-08-14T11:34:19.526Z,28.16
2023-08-14T11:35:19.584Z,28.15
2023-08-14T11:36:20.175Z,28.14
2023-08-14T11:37:19.497Z,28.13
2023-08-14T11:38:19.484Z,28.12
2023-08-14T11:39:19.486Z,28.10
2023-08-14T11:40:19.472Z,28.09
2023-08-14T11:41:31.063Z,28.09
2023-08-14T11:42:20.738Z,28.06
2023-08-14T11:43:19.478Z,28.05
2023-08-14T11:44:19.461Z,28.04
2023-08-14T11:45:19.421Z,28.03
2023-08-14T11:46:19.440Z,28.02
2023-08-14T11:47:19.450Z,27.99
2023-08-14T11:48:19.460Z,28.00
2023-08-14T11:49:19.436Z,28.01
2023-08-14T11:50:19.431Z,28.01
2023-08-14T11:51:19.414Z,27.99
2023-08-14T11:52:19.657Z,28.00
2023-08-14T11:53:19.385Z,28.00
2023-08-14T11:54:19.380Z,27.99
2023-08-14T11:55:19.369Z,27.99
2023-08-14T11:56:19.358Z,28.00
2023-08-14T11:57:19.351Z,28.02
2023-08-14T11:58:19.348Z,28.03
2023-08-14T11:59:19.335Z,28.03
2023-08-14T12:00:27.210Z,28.03
2023-08-14T12:01:20.372Z,28.05
2023-08-14T12:02:19.610Z,28.05
2023-08-14T12:03:19.434Z,28.05
2023-08-14T12:04:19.307Z,28.05
2023-08-14T12:05:19.320Z,28.06
2023-08-14T12:06:19.302Z,28.06
2023-08-14T12:07:19.306Z,28.06
2023-08-14T12:08:19.291Z,28.04
2023-08-14T12:09:19.300Z,28.03
2023-08-14T12:10:19.266Z,28.03
2023-08-14T12:11:19.277Z,28.02
2023-08-14T12:12:19.464Z,28.01
2023-08-14T12:13:19.283Z,28.00
2023-08-14T12:14:19.250Z,27.99
2023-08-14T12:15:19.237Z,27.99
2023-08-14T12:16:21.975Z,27.98
2023-08-14T12:17:20.910Z,27.97
2023-08-14T12:18:20.215Z,27.96
2023-08-14T12:19:19.203Z,27.96
2023-08-14T12:20:19.219Z,27.95
2023-08-14T12:21:19.230Z,27.95
2023-08-14T12:22:19.213Z,27.94
2023-08-14T12:23:19.782Z,27.94
2023-08-14T12:24:19.154Z,27.93
2023-08-14T12:25:19.187Z,27.92
2023-08-14T12:26:19.153Z,27.92
2023-08-14T12:27:19.457Z,27.92
2023-08-14T12:28:19.129Z,27.91
2023-08-14T12:29:19.269Z,27.90
2023-08-14T12:30:19.189Z,27.90
2023-08-14T12:31:19.259Z,27.89
2023-08-14T12:32:19.231Z,27.89
2023-08-14T12:33:19.252Z,27.89
2023-08-14T12:34:19.288Z,27.88
2023-08-14T12:35:19.300Z,27.87
2023-08-14T12:36:19.295Z,27.87
2023-08-14T12:37:19.657Z,27.86
2023-08-14T12:38:19.362Z,27.87
2023-08-14T12:39:19.390Z,27.84
2023-08-14T12:40:19.401Z,27.84
2023-08-14T12:41:19.424Z,27.84
2023-08-14T12:42:19.471Z,27.83
2023-08-14T12:43:21.138Z,27.83
2023-08-14T12:44:19.510Z,27.83
2023-08-14T12:45:19.462Z,27.83
2023-08-14T12:46:19.488Z,27.83
2023-08-14T12:47:19.661Z,27.83
2023-08-14T12:48:19.475Z,27.83
2023-08-14T12:49:19.454Z,27.82
2023-08-14T12:50:19.465Z,27.83
2023-08-14T12:51:19.438Z,27.83
2023-08-14T12:52:19.410Z,27.83
2023-08-14T12:53:19.446Z,27.83
2023-08-14T12:54:19.467Z,27.83
2023-08-14T12:55:19.740Z,27.84